KLAN/LAN METAR and TAF weather

Enter ICAO airport designator
Station Type Date Time Source
KLAN METAR 2019/08/22 08:53 UTC NOAA

KLAN 220853Z 04004KT 10SM CLR 18/12 A2999 RMK AO2 SLP150 T01830117 53001 $


Station Type Date Time Source
KLAN Decoded METAR 2019/08/22 08:53 UTC NOAA

Station name not available
Aug 22, 2019 - 04:53 AM EDT / 2019.08.22 0853 UTC
Wind: from the NE (040 degrees) at 5 MPH (4 KT):0
Visibility: 10 mile(s):0
Sky conditions: clear
Temperature: 64.9 F (18.3 C)
Dew Point: 53.1 F (11.7 C)
Relative Humidity: 65%
Pressure (altimeter): 29.99 in. Hg (1015 hPa)
Pressure tendency: 0.00 inches (0.1 hPa) higher than three hours ago
ob: KLAN 220853Z 04004KT 10SM CLR 18/12 A2999 RMK AO2 SLP150 T01830117 53001
cycle: 9

Station Type Date Time Source
KLAN TAF 2019/08/22 06:33 UTC NOAA

TAF KLAN 220530Z 2206/2306 04006KT P6SM SCT060 BKN250
FM221800 34008KT P6SM BKN060
FM230000 35005KT P6SM SKC

Example: see airport list